createdAt,value
2023-04-17T00:02:29.962Z,2.53
2023-04-17T00:04:59.929Z,1.92
2023-04-17T00:07:28.523Z,2.30
2023-04-17T00:09:56.880Z,2.50
2023-04-17T00:12:25.166Z,1.90
2023-04-17T00:14:53.526Z,1.92
2023-04-17T00:17:22.006Z,2.00
2023-04-17T00:19:51.714Z,2.20
2023-04-17T00:22:20.027Z,2.20
2023-04-17T00:24:48.322Z,1.90
2023-04-17T00:27:16.598Z,2.70
2023-04-17T00:29:44.940Z,2.58
2023-04-17T00:32:13.313Z,3.15
2023-04-17T00:34:41.652Z,2.25
2023-04-17T00:37:11.305Z,3.25
2023-04-17T00:39:39.577Z,1.95
2023-04-17T00:42:07.921Z,2.10
2023-04-17T00:44:36.200Z,2.10
2023-04-17T00:47:04.682Z,3.60
2023-04-17T00:49:33.449Z,1.95
2023-04-17T00:52:01.967Z,2.35
2023-04-17T00:54:32.139Z,2.35
2023-04-17T00:57:01.523Z,2.13
2023-04-17T00:59:32.568Z,2.92
2023-04-17T01:46:14.241Z,3.40
2023-04-17T01:48:44.358Z,3.67
2023-04-17T01:51:12.886Z,4.13
2023-04-17T01:53:41.584Z,2.80
2023-04-17T01:56:10.058Z,2.22
2023-04-17T01:58:38.550Z,2.22
2023-04-17T02:48:30.123Z,2.45
2023-04-17T02:51:00.151Z,2.67
2023-04-17T02:53:29.118Z,2.47
2023-04-17T02:55:57.569Z,2.55
2023-04-17T02:58:26.694Z,3.30
2023-04-17T03:47:47.710Z,5.85
2023-04-17T03:50:16.996Z,7.00
2023-04-17T03:52:52.167Z,4.97
2023-04-17T03:55:20.872Z,3.47
2023-04-17T03:57:51.908Z,4.60
2023-04-17T04:47:45.697Z,2.55
2023-04-17T04:50:14.393Z,4.80
2023-04-17T04:52:42.869Z,3.65
2023-04-17T04:55:24.412Z,5.72
2023-04-17T04:57:55.523Z,3.42
2023-04-17T05:00:26.412Z,4.47
2023-04-17T05:02:59.228Z,3.33
2023-04-17T05:05:28.438Z,5.15
2023-04-17T05:07:57.378Z,4.05
2023-04-17T05:10:30.669Z,3.45
2023-04-17T05:13:02.674Z,2.42
2023-04-17T05:15:31.241Z,4.38
2023-04-17T05:18:01.016Z,2.50
2023-04-17T05:20:32.016Z,3.33
2023-04-17T05:23:00.437Z,4.57
2023-04-17T05:25:29.063Z,4.60
2023-04-17T05:27:59.122Z,2.22
2023-04-17T05:30:28.528Z,2.78
2023-04-17T05:33:09.973Z,2.30
2023-04-17T05:35:49.587Z,4.25
2023-04-17T05:38:18.138Z,3.20
2023-04-17T05:40:46.438Z,4.60
2023-04-17T05:43:14.819Z,5.05
2023-04-17T05:45:43.303Z,2.92
2023-04-17T05:48:13.114Z,3.75
2023-04-17T05:50:41.501Z,5.80
2023-04-17T05:53:10.757Z,3.28
2023-04-17T05:55:55.575Z,5.13
2023-04-17T05:58:24.615Z,3.28
2023-04-17T06:00:57.005Z,2.47
2023-04-17T06:03:28.218Z,4.20
2023-04-17T06:06:19.410Z,3.33
2023-04-17T06:08:47.749Z,3.50
2023-04-17T06:11:17.161Z,3.33
2023-04-17T06:13:46.291Z,2.40
2023-04-17T06:16:16.369Z,2.53
2023-04-17T06:18:46.097Z,2.45
2023-04-17T06:21:14.848Z,2.28
2023-04-17T06:23:43.180Z,1.67
2023-04-17T06:26:12.503Z,4.28
2023-04-17T06:28:41.354Z,2.63
2023-04-17T06:31:09.760Z,2.30
2023-04-17T06:33:38.570Z,3.58
2023-04-17T06:36:09.626Z,3.05
2023-04-17T06:38:50.097Z,1.83
2023-04-17T06:41:22.434Z,2.67
2023-04-17T06:43:50.824Z,4.45
2023-04-17T06:46:19.205Z,3.28
2023-04-17T06:48:48.652Z,2.10
2023-04-17T06:51:21.430Z,3.13
2023-04-17T06:53:50.067Z,3.65
2023-04-17T06:56:19.401Z,2.40
2023-04-17T06:58:48.141Z,2.67
2023-04-17T07:01:16.492Z,2.33
2023-04-17T07:03:45.190Z,2.33
2023-04-17T07:06:13.616Z,6.32
2023-04-17T07:08:43.330Z,2.40
2023-04-17T07:11:11.845Z,2.45
2023-04-17T07:13:40.090Z,2.38
2023-04-17T07:16:08.886Z,3.35
2023-04-17T07:18:37.377Z,3.33
2023-04-17T07:21:05.845Z,3.05
2023-04-17T07:23:34.340Z,2.60
2023-04-17T07:26:04.219Z,5.05
2023-04-17T07:28:32.590Z,4.13
2023-04-17T07:31:01.126Z,5.72
2023-04-17T07:33:29.525Z,5.05
2023-04-17T07:35:57.857Z,3.85
2023-04-17T07:38:27.027Z,4.45
2023-04-17T07:40:55.417Z,13.60
2023-04-17T07:43:25.257Z,6.20
2023-04-17T07:45:53.662Z,7.63
2023-04-17T07:48:24.108Z,4.43
2023-04-17T07:50:52.723Z,13.20
2023-04-17T07:53:22.187Z,9.45
2023-04-17T07:55:51.690Z,7.22
2023-04-17T07:58:20.297Z,7.60
2023-04-17T08:00:52.110Z,5.38
2023-04-17T08:03:24.553Z,7.60
2023-04-17T08:05:53.923Z,9.15
2023-04-17T08:08:23.624Z,12.13
2023-04-17T08:10:52.159Z,7.80
2023-04-17T08:13:20.516Z,12.10
2023-04-17T08:15:52.213Z,8.93
2023-04-17T08:18:20.582Z,8.40
2023-04-17T08:20:48.968Z,9.52
2023-04-17T08:23:17.286Z,8.18
2023-04-17T08:25:46.404Z,7.60
2023-04-17T08:28:14.761Z,8.30
2023-04-17T08:30:43.163Z,8.23
2023-04-17T08:33:16.787Z,8.10
2023-04-17T08:35:45.460Z,8.45
2023-04-17T08:38:14.851Z,7.95
2023-04-17T08:40:46.646Z,6.78
2023-04-17T08:43:19.578Z,9.40
2023-04-17T08:45:54.308Z,6.78
2023-04-17T08:48:25.047Z,11.70
2023-04-17T08:50:54.959Z,6.55
2023-04-17T08:53:23.616Z,8.93
2023-04-17T08:55:52.146Z,7.47
2023-04-17T08:58:21.954Z,7.82
2023-04-17T09:00:50.336Z,9.27
2023-04-17T09:03:18.889Z,9.27
2023-04-17T09:05:51.913Z,6.38
2023-04-17T09:08:24.589Z,6.13
2023-04-17T09:10:55.251Z,8.10
2023-04-17T09:13:26.135Z,7.10
2023-04-17T09:16:07.663Z,9.35
2023-04-17T09:18:37.647Z,6.90
2023-04-17T09:21:08.635Z,6.13
2023-04-17T09:23:50.381Z,7.70
2023-04-17T09:26:20.989Z,6.20
2023-04-17T09:29:08.643Z,5.30
2023-04-17T09:31:37.988Z,8.55
2023-04-17T09:34:08.633Z,6.90
2023-04-17T09:36:41.652Z,6.38
2023-04-17T09:39:20.339Z,5.40
2023-04-17T09:41:49.058Z,7.65
2023-04-17T09:44:28.261Z,7.30
2023-04-17T09:46:57.880Z,6.93
2023-04-17T09:49:40.088Z,7.15
2023-04-17T09:52:12.204Z,6.85
2023-04-17T09:54:42.929Z,6.65
2023-04-17T09:57:13.109Z,6.25
2023-04-17T09:59:44.992Z,7.93
2023-04-17T10:02:15.425Z,7.45
2023-04-17T10:04:46.367Z,7.53
2023-04-17T10:07:17.923Z,8.65
2023-04-17T10:09:48.072Z,9.15
2023-04-17T10:12:19.100Z,7.10
2023-04-17T10:14:52.337Z,7.32
2023-04-17T10:17:25.091Z,7.25
2023-04-17T10:19:53.564Z,9.85
2023-04-17T10:22:34.101Z,7.22
2023-04-17T10:25:23.399Z,9.50
2023-04-17T10:28:02.202Z,12.00
2023-04-17T10:30:53.883Z,9.70
2023-04-17T10:33:27.433Z,6.53
2023-04-17T10:35:56.197Z,7.78
2023-04-17T10:38:37.256Z,7.53
2023-04-17T10:41:11.252Z,6.47
2023-04-17T10:43:45.142Z,6.65
2023-04-17T10:46:14.849Z,6.30
2023-04-17T10:48:49.543Z,5.80
2023-04-17T10:51:44.135Z,7.00
2023-04-17T10:54:15.690Z,5.47
2023-04-17T10:56:48.772Z,5.25
2023-04-17T10:59:18.927Z,5.78
2023-04-17T11:02:04.272Z,6.28
2023-04-17T11:04:33.867Z,6.68
2023-04-17T11:07:02.877Z,6.43
2023-04-17T11:09:32.507Z,5.68
2023-04-17T11:12:02.719Z,5.75
2023-04-17T11:14:32.613Z,5.80
2023-04-17T11:17:03.093Z,6.47
2023-04-17T11:19:33.461Z,6.72
2023-04-17T11:22:03.129Z,6.20
2023-04-17T11:24:33.987Z,6.30
2023-04-17T11:27:03.308Z,7.07
2023-04-17T11:29:31.892Z,5.78
2023-04-17T11:32:01.367Z,5.20
2023-04-17T11:34:30.427Z,5.75
2023-04-17T11:37:01.180Z,5.43
2023-04-17T11:39:32.862Z,8.05
2023-04-17T11:42:02.354Z,6.45
2023-04-17T11:44:30.990Z,4.90
2023-04-17T11:46:59.949Z,6.18
2023-04-17T11:49:30.161Z,5.63
2023-04-17T11:52:02.344Z,6.05
2023-04-17T11:54:36.268Z,5.55
2023-04-17T11:57:06.441Z,4.25
2023-04-17T11:59:37.310Z,5.40
2023-04-17T12:02:08.357Z,5.57
2023-04-17T12:04:38.207Z,4.80
2023-04-17T12:07:09.015Z,7.35
2023-04-17T12:09:38.860Z,5.75
2023-04-17T12:12:08.793Z,6.60
2023-04-17T12:14:38.546Z,5.95
2023-04-17T12:17:07.330Z,5.57
2023-04-17T12:19:35.805Z,5.63
2023-04-17T12:22:04.152Z,4.57
2023-04-17T12:24:32.669Z,6.30
2023-04-17T12:27:02.426Z,6.55
2023-04-17T12:29:43.252Z,7.03
2023-04-17T12:32:13.058Z,6.32
2023-04-17T12:34:41.561Z,6.10
2023-04-17T12:37:10.271Z,5.97
2023-04-17T12:39:38.719Z,7.05
2023-04-17T12:42:08.493Z,5.88
2023-04-17T12:44:36.874Z,5.97
2023-04-17T12:47:05.324Z,5.68
2023-04-17T12:49:33.760Z,5.47
2023-04-17T12:52:03.603Z,6.28
2023-04-17T12:54:32.976Z,4.63
2023-04-17T12:57:02.279Z,4.60
2023-04-17T12:59:33.749Z,5.35
2023-04-17T13:02:03.010Z,4.93
2023-04-17T13:04:31.631Z,5.13
2023-04-17T13:07:00.270Z,5.80
2023-04-17T13:09:28.598Z,7.13
2023-04-17T13:11:57.676Z,8.63
2023-04-17T13:14:25.965Z,6.80
2023-04-17T13:16:56.357Z,6.55
2023-04-17T13:19:24.969Z,6.45
2023-04-17T13:21:53.794Z,5.78
2023-04-17T13:24:22.551Z,6.43
2023-04-17T13:26:51.005Z,6.00
2023-04-17T13:29:20.033Z,5.07
2023-04-17T13:31:49.518Z,9.63
2023-04-17T13:34:19.631Z,9.25
2023-04-17T13:36:48.285Z,6.32
2023-04-17T13:39:16.909Z,10.27
2023-04-17T13:41:45.727Z,6.60
2023-04-17T13:44:15.122Z,9.70
2023-04-17T13:46:44.134Z,8.70
2023-04-17T13:49:12.984Z,7.30
2023-04-17T13:51:43.295Z,10.75
2023-04-17T13:54:11.905Z,7.78
2023-04-17T13:56:40.249Z,7.22
2023-04-17T13:59:08.812Z,24.25
2023-04-17T14:01:37.323Z,15.13
2023-04-17T14:04:06.225Z,10.35
2023-04-17T14:06:35.608Z,12.48
2023-04-17T14:09:07.520Z,10.48
2023-04-17T14:11:35.986Z,11.75
2023-04-17T14:14:17.361Z,9.77
2023-04-17T14:16:47.276Z,10.02
2023-04-17T14:19:15.878Z,7.32
2023-04-17T14:21:44.845Z,8.73
2023-04-17T14:24:14.654Z,7.88
2023-04-17T14:26:43.346Z,7.68
2023-04-17T14:29:13.962Z,8.80
2023-04-17T14:31:42.785Z,6.93
2023-04-17T14:34:11.506Z,7.32
2023-04-17T14:36:40.043Z,6.95
2023-04-17T14:39:13.043Z,5.90
2023-04-17T14:41:47.498Z,6.00
2023-04-17T14:44:17.302Z,7.53
2023-04-17T14:46:48.941Z,7.75
2023-04-17T14:49:21.108Z,6.90
2023-04-17T14:51:51.613Z,5.43
2023-04-17T14:54:23.040Z,5.43
2023-04-17T14:56:53.604Z,5.75
2023-04-17T14:59:22.066Z,7.35
2023-04-17T15:01:50.561Z,6.38
2023-04-17T15:04:19.017Z,6.10
2023-04-17T15:06:48.903Z,5.88
2023-04-17T15:09:17.288Z,4.93
2023-04-17T15:11:46.838Z,6.20
2023-04-17T15:14:16.638Z,6.85
2023-04-17T15:16:45.080Z,6.65
2023-04-17T15:19:13.673Z,6.85
2023-04-17T15:21:42.274Z,5.80
2023-04-17T15:24:10.960Z,7.43
2023-04-17T15:26:39.316Z,5.93
2023-04-17T15:29:07.900Z,6.70
2023-04-17T15:31:40.289Z,6.50
2023-04-17T15:34:08.897Z,7.03
2023-04-17T15:36:37.289Z,6.28
2023-04-17T15:39:05.767Z,7.25
2023-04-17T15:41:34.655Z,7.57
2023-04-17T15:44:06.367Z,7.47
2023-04-17T15:46:34.973Z,7.13
2023-04-17T15:49:09.196Z,7.75
2023-04-17T15:51:40.243Z,6.85
2023-04-17T15:54:12.085Z,7.80
2023-04-17T15:56:41.509Z,7.63
2023-04-17T15:59:11.175Z,6.68
2023-04-17T16:01:39.730Z,7.88
2023-04-17T16:04:10.021Z,6.63
2023-04-17T16:06:38.752Z,6.28
2023-04-17T16:09:07.271Z,7.00
2023-04-17T16:11:35.750Z,8.95
2023-04-17T16:14:04.328Z,7.13
2023-04-17T16:16:32.862Z,6.80
2023-04-17T16:19:01.594Z,6.85
2023-04-17T16:21:31.948Z,6.75
2023-04-17T16:24:00.359Z,6.93
2023-04-17T16:26:30.792Z,7.88
2023-04-17T16:28:59.263Z,12.57
2023-04-17T16:31:28.150Z,10.20
2023-04-17T16:33:56.549Z,8.98
2023-04-17T16:36:24.937Z,6.85
2023-04-17T16:38:54.623Z,7.53
2023-04-17T16:41:23.376Z,6.18
2023-04-17T16:43:51.928Z,5.95
2023-04-17T16:46:28.601Z,6.10
2023-04-17T16:53:45.790Z,6.35
2023-04-17T16:56:15.663Z,6.20
2023-04-17T16:58:44.176Z,7.72
2023-04-17T17:01:12.838Z,7.60
2023-04-17T17:03:43.277Z,6.82
2023-04-17T17:06:12.095Z,8.80
2023-04-17T17:08:43.134Z,9.63
2023-04-17T17:11:11.602Z,8.10
2023-04-17T17:13:41.845Z,9.43
2023-04-17T17:16:10.385Z,8.23
2023-04-17T17:18:38.854Z,11.05
2023-04-17T17:21:07.842Z,8.13
2023-04-17T17:23:36.774Z,10.52
2023-04-17T17:26:05.620Z,6.65
2023-04-17T17:28:35.246Z,6.93
2023-04-17T17:31:07.456Z,9.38
2023-04-17T17:33:36.936Z,8.27
2023-04-17T17:36:06.210Z,7.93
2023-04-17T17:38:34.726Z,7.45
2023-04-17T17:41:04.328Z,7.85
2023-04-17T17:43:32.770Z,6.68
2023-04-17T17:46:01.375Z,8.77
2023-04-17T17:48:31.227Z,6.63
2023-04-17T17:50:59.728Z,7.53
2023-04-17T17:53:28.280Z,8.85
2023-04-17T17:55:57.704Z,7.32
2023-04-17T17:58:27.595Z,7.10
2023-04-17T18:00:56.373Z,6.00
2023-04-17T18:03:25.168Z,6.47
2023-04-17T18:05:55.220Z,5.85
2023-04-17T18:08:23.599Z,6.70
2023-04-17T18:10:52.085Z,6.57
2023-04-17T18:13:20.644Z,5.82
2023-04-17T18:15:49.260Z,8.88
2023-04-17T18:18:17.804Z,6.57
2023-04-17T18:20:46.386Z,5.35
2023-04-17T18:23:16.364Z,9.80
2023-04-17T18:25:45.057Z,6.80
2023-04-17T18:28:13.535Z,5.05
2023-04-17T18:30:42.301Z,6.47
2023-04-17T18:33:10.840Z,7.25
2023-04-17T18:35:39.299Z,8.32
2023-04-17T18:38:07.824Z,6.32
2023-04-17T18:40:37.645Z,5.95
2023-04-17T18:43:06.638Z,5.45
2023-04-17T18:45:35.375Z,6.78
2023-04-17T18:48:04.421Z,7.05
2023-04-17T18:50:33.163Z,5.57
2023-04-17T18:53:01.880Z,5.63
2023-04-17T18:55:30.866Z,5.68
2023-04-17T18:58:01.003Z,6.97
2023-04-17T19:00:29.452Z,6.97
2023-04-17T19:02:58.461Z,8.30
2023-04-17T19:05:27.384Z,7.50
2023-04-17T19:07:55.972Z,6.22
2023-04-17T19:10:24.723Z,9.75
2023-04-17T19:12:53.375Z,7.65
2023-04-17T19:15:24.380Z,5.72
2023-04-17T19:17:52.973Z,7.57
2023-04-17T19:20:23.325Z,5.88
2023-04-17T19:22:51.851Z,6.45
2023-04-17T19:25:20.474Z,6.80
2023-04-17T19:27:48.935Z,11.88
2023-04-17T19:30:17.484Z,13.57
2023-04-17T19:32:47.471Z,17.77
2023-04-17T19:35:15.970Z,11.65
2023-04-17T19:37:44.723Z,16.73
2023-04-17T19:40:24.550Z,21.52
2023-04-17T19:42:54.126Z,28.50
2023-04-17T19:45:22.754Z,35.75
2023-04-17T19:47:56.800Z,33.42
2023-04-17T19:50:27.082Z,35.58
2023-04-17T19:52:56.687Z,38.58
2023-04-17T19:55:25.640Z,39.50
2023-04-17T19:57:56.111Z,37.60
2023-04-17T20:00:24.842Z,47.28
2023-04-17T20:02:54.885Z,48.40
2023-04-17T20:05:23.438Z,50.17
2023-04-17T20:07:52.041Z,60.05
2023-04-17T20:10:20.681Z,65.22
2023-04-17T20:12:49.160Z,62.35
2023-04-17T20:15:19.859Z,64.28
2023-04-17T20:17:48.406Z,55.42
2023-04-17T20:20:18.265Z,51.28
2023-04-17T20:22:46.659Z,54.05
2023-04-17T20:25:15.162Z,56.42
2023-04-17T20:27:43.675Z,53.80
2023-04-17T20:30:14.036Z,55.85
2023-04-17T20:32:43.576Z,53.85
2023-04-17T20:35:12.116Z,49.75
2023-04-17T20:37:44.374Z,50.70
2023-04-17T20:40:14.068Z,50.88
2023-04-17T20:42:45.505Z,50.20
2023-04-17T20:45:13.977Z,48.88
2023-04-17T20:47:55.313Z,47.05
2023-04-17T20:50:25.939Z,41.92
2023-04-17T20:52:55.923Z,36.45
2023-04-17T20:55:24.566Z,29.35
2023-04-17T20:57:53.039Z,30.45
2023-04-17T21:00:21.834Z,33.83
2023-04-17T21:02:50.335Z,32.03
2023-04-17T21:05:19.299Z,37.78
2023-04-17T21:07:49.476Z,35.42
2023-04-17T21:10:20.893Z,34.05
2023-04-17T21:12:49.395Z,36.78
2023-04-17T21:15:18.091Z,28.40
2023-04-17T21:17:47.766Z,33.95
2023-04-17T21:20:16.662Z,32.25
2023-04-17T21:22:45.374Z,30.65
2023-04-17T21:25:14.109Z,28.35
2023-04-17T21:27:44.080Z,30.35
2023-04-17T21:30:12.997Z,30.75
2023-04-17T21:32:42.254Z,27.55
2023-04-17T21:35:11.366Z,34.13
2023-04-17T21:37:40.379Z,26.75
2023-04-17T21:40:10.689Z,31.65
2023-04-17T21:42:39.195Z,29.55
2023-04-17T21:45:10.713Z,31.42
2023-04-17T21:47:39.495Z,32.88
2023-04-17T21:50:10.063Z,30.98
2023-04-17T21:52:38.865Z,32.42
2023-04-17T21:55:09.238Z,24.40
2023-04-17T21:57:37.668Z,22.90
2023-04-17T22:00:11.589Z,22.45
2023-04-17T22:02:40.352Z,23.70
2023-04-17T22:05:09.574Z,22.10
2023-04-17T22:07:51.285Z,21.13
2023-04-17T22:10:24.045Z,18.38
2023-04-17T22:12:52.580Z,21.55
2023-04-17T22:15:22.785Z,16.52
2023-04-17T22:17:51.503Z,22.15
2023-04-17T22:20:20.616Z,20.38
2023-04-17T22:22:49.284Z,19.05
2023-04-17T22:25:17.880Z,15.98
2023-04-17T22:27:46.480Z,20.92
2023-04-17T22:30:15.456Z,21.08
2023-04-17T22:32:45.514Z,14.98
2023-04-17T22:35:15.523Z,15.75
2023-04-17T22:37:44.034Z,14.18
2023-04-17T22:40:14.153Z,14.18
2023-04-17T22:42:43.221Z,16.73
2023-04-17T22:45:13.049Z,16.27
2023-04-17T22:47:42.057Z,14.13
2023-04-17T22:50:14.489Z,15.63
2023-04-17T22:52:42.934Z,16.02
2023-04-17T22:55:11.475Z,11.52
2023-04-17T22:57:39.932Z,12.45
2023-04-17T23:47:32.692Z,9.68
2023-04-17T23:50:01.181Z,11.52
2023-04-17T23:52:29.697Z,11.27
2023-04-17T23:54:58.149Z,10.98
2023-04-17T23:57:26.657Z,14.02
2023-04-17T23:59:55.053Z,14.65
